createdAt,value
2023-03-19T00:03:13.567Z,49.90
2023-03-19T00:09:15.546Z,50.07
2023-03-19T00:15:17.310Z,49.91
2023-03-19T00:21:19.075Z,49.97
2023-03-19T00:27:20.928Z,50.18
2023-03-19T00:33:22.513Z,50.52
2023-03-19T00:39:24.091Z,50.60
2023-03-19T00:45:25.701Z,50.76
2023-03-19T00:51:27.211Z,50.98
2023-03-19T00:57:29.709Z,50.83
2023-03-19T01:03:31.309Z,50.63
2023-03-19T01:09:32.935Z,50.81
2023-03-19T01:15:42.145Z,50.88
2023-03-19T01:21:45.618Z,51.28
2023-03-19T01:27:50.717Z,50.92
2023-03-19T01:33:52.210Z,52.24
2023-03-19T01:40:15.445Z,51.63
2023-03-19T01:46:36.313Z,51.30
2023-03-19T01:52:57.222Z,51.46
2023-03-19T01:59:12.086Z,51.43
2023-03-19T02:05:28.979Z,51.19
2023-03-19T02:11:34.836Z,51.18
2023-03-19T02:17:38.923Z,51.87
2023-03-19T02:24:07.142Z,51.98
2023-03-19T02:30:35.515Z,52.31
2023-03-19T02:36:45.394Z,52.22
2023-03-19T02:42:46.936Z,51.74
2023-03-19T02:48:54.485Z,52.03
2023-03-19T02:54:56.085Z,52.63
2023-03-19T03:00:59.554Z,52.03
2023-03-19T03:07:01.736Z,51.85
2023-03-19T03:13:04.919Z,51.63
2023-03-19T03:19:06.549Z,52.31
2023-03-19T03:25:11.805Z,52.07
2023-03-19T03:31:13.793Z,52.45
2023-03-19T03:37:16.586Z,53.16
2023-03-19T03:43:20.171Z,53.36
2023-03-19T03:49:22.540Z,53.64
2023-03-19T03:55:27.592Z,52.96
2023-03-19T04:01:34.656Z,52.99
2023-03-19T04:07:39.696Z,53.24
2023-03-19T04:13:44.014Z,53.45
2023-03-19T04:19:45.484Z,54.03
2023-03-19T04:25:57.892Z,53.80
2023-03-19T04:32:05.601Z,53.37
2023-03-19T04:38:08.307Z,53.86
2023-03-19T04:44:12.991Z,54.55
2023-03-19T04:50:15.607Z,53.66
2023-03-19T04:56:18.130Z,53.97
2023-03-19T05:02:21.322Z,53.82
2023-03-19T05:08:24.876Z,53.88
2023-03-19T05:14:26.424Z,53.44
2023-03-19T05:20:38.071Z,53.69
2023-03-19T05:26:43.053Z,53.44
2023-03-19T05:33:00.026Z,54.33
2023-03-19T05:39:14.587Z,53.36
2023-03-19T05:45:18.918Z,53.38
2023-03-19T05:51:24.905Z,52.93
2023-03-19T05:57:26.740Z,52.89
2023-03-19T06:03:34.633Z,52.92
2023-03-19T06:09:41.258Z,52.78
2023-03-19T06:15:42.872Z,52.24
2023-03-19T06:21:44.602Z,51.99
2023-03-19T06:27:46.250Z,51.74
2023-03-19T06:33:55.832Z,51.38
2023-03-19T06:39:59.914Z,51.25
2023-03-19T06:46:04.263Z,50.79
2023-03-19T06:52:06.343Z,49.87
2023-03-19T06:58:08.010Z,49.68
2023-03-19T07:04:10.701Z,49.67
2023-03-19T07:10:13.138Z,49.72
2023-03-19T07:16:15.593Z,49.15
2023-03-19T07:22:17.635Z,49.08
2023-03-19T07:28:20.062Z,48.84
2023-03-19T07:34:22.484Z,48.49
2023-03-19T07:40:25.206Z,48.12
2023-03-19T07:46:27.682Z,47.53
2023-03-19T07:52:29.601Z,46.99
2023-03-19T07:58:31.122Z,46.39
2023-03-19T08:04:33.155Z,46.12
2023-03-19T08:10:37.457Z,45.61
2023-03-19T08:16:40.103Z,44.89
2023-03-19T08:22:42.429Z,44.38
2023-03-19T08:28:44.519Z,43.61
2023-03-19T08:34:49.013Z,42.98
2023-03-19T08:40:50.999Z,42.65
2023-03-19T08:46:52.680Z,42.22
2023-03-19T08:52:55.342Z,41.31
2023-03-19T08:58:57.337Z,41.03
2023-03-19T09:04:59.346Z,40.46
2023-03-19T09:11:01.433Z,39.94
2023-03-19T09:17:04.111Z,39.51
2023-03-19T09:23:05.872Z,39.80
2023-03-19T09:29:08.604Z,39.61
2023-03-19T09:35:10.223Z,38.83
2023-03-19T09:41:22.341Z,38.57
2023-03-19T09:47:28.231Z,38.18
2023-03-19T09:53:39.151Z,37.10
2023-03-19T09:59:40.762Z,36.44
2023-03-19T10:06:20.540Z,35.79
2023-03-19T10:12:26.144Z,35.12
2023-03-19T10:18:35.502Z,34.91
2023-03-19T10:24:40.077Z,35.06
2023-03-19T10:30:44.580Z,34.99
2023-03-19T10:36:46.301Z,35.42
2023-03-19T10:43:14.412Z,35.60
2023-03-19T10:49:16.241Z,35.22
2023-03-19T10:55:23.788Z,34.83
2023-03-19T11:01:35.770Z,34.94
2023-03-19T11:07:37.741Z,34.59
2023-03-19T11:13:39.514Z,34.20
2023-03-19T11:19:42.443Z,33.92
2023-03-19T11:25:55.342Z,33.52
2023-03-19T11:32:25.835Z,33.09
2023-03-19T11:38:35.692Z,33.27
2023-03-19T11:45:02.383Z,33.30
2023-03-19T11:51:16.663Z,32.62
2023-03-19T11:57:27.824Z,31.83
2023-03-19T12:03:44.646Z,31.13
2023-03-19T12:09:55.272Z,31.66
2023-03-19T12:16:16.417Z,30.65
2023-03-19T12:22:49.952Z,30.58
2023-03-19T12:29:05.961Z,29.86
2023-03-19T12:35:15.741Z,30.55
2023-03-19T12:41:21.524Z,30.23
2023-03-19T12:47:31.918Z,30.09
2023-03-19T12:53:50.080Z,30.42
2023-03-19T13:00:00.138Z,29.99
2023-03-19T13:06:08.594Z,29.57
2023-03-19T13:12:13.314Z,29.72
2023-03-19T13:18:45.687Z,30.08
2023-03-19T13:24:48.304Z,30.56
2023-03-19T13:31:04.587Z,30.20
2023-03-19T13:37:12.574Z,29.59
2023-03-19T13:43:37.398Z,29.17
2023-03-19T13:50:04.536Z,29.32
2023-03-19T13:56:26.562Z,29.34
2023-03-19T14:02:30.734Z,29.46
2023-03-19T14:08:43.001Z,29.60
2023-03-19T14:14:47.281Z,29.81
2023-03-19T14:21:01.505Z,29.57
2023-03-19T14:27:16.708Z,30.07
2023-03-19T14:33:41.268Z,30.23
2023-03-19T14:39:43.554Z,30.36
2023-03-19T14:46:03.416Z,30.61
2023-03-19T14:52:15.146Z,30.58
2023-03-19T14:58:23.592Z,30.42
2023-03-19T15:04:27.993Z,30.99
2023-03-19T15:10:38.085Z,30.94
2023-03-19T15:16:55.486Z,30.81
2023-03-19T15:23:00.563Z,30.58
2023-03-19T15:29:04.426Z,30.40
2023-03-19T15:35:10.419Z,30.91
2023-03-19T15:41:41.297Z,31.19
2023-03-19T15:48:13.592Z,31.54
2023-03-19T15:54:15.700Z,31.82
2023-03-19T16:00:17.954Z,32.23
2023-03-19T16:06:29.716Z,32.40
2023-03-19T16:12:39.179Z,33.06
2023-03-19T16:18:44.902Z,33.34
2023-03-19T16:24:47.617Z,33.68
2023-03-19T16:30:50.140Z,33.97
2023-03-19T16:36:51.990Z,33.99
2023-03-19T16:42:55.401Z,34.44
2023-03-19T16:48:57.112Z,34.84
2023-03-19T16:54:59.412Z,35.09
2023-03-19T17:01:02.426Z,35.43
2023-03-19T17:07:03.950Z,35.63
2023-03-19T17:13:07.408Z,36.06
2023-03-19T17:19:15.537Z,36.29
2023-03-19T17:25:20.228Z,36.51
2023-03-19T17:31:30.590Z,36.84
2023-03-19T17:37:32.295Z,37.09
2023-03-19T17:43:33.970Z,37.16
2023-03-19T17:49:35.500Z,37.88
2023-03-19T17:55:37.029Z,37.89
2023-03-19T18:01:42.390Z,38.04
2023-03-19T18:07:46.988Z,38.35
2023-03-19T18:13:48.817Z,38.39
2023-03-19T18:19:51.752Z,38.65
2023-03-19T18:25:53.516Z,39.12
2023-03-19T18:32:03.327Z,39.28
2023-03-19T18:38:35.217Z,39.06
2023-03-19T18:45:29.145Z,39.77
2023-03-19T18:52:00.678Z,40.61
2023-03-19T18:58:04.031Z,40.89
2023-03-19T19:04:06.395Z,40.98
2023-03-19T19:10:11.092Z,41.23
2023-03-19T19:16:20.498Z,41.19
2023-03-19T19:22:22.557Z,41.48
2023-03-19T19:28:27.263Z,41.69
2023-03-19T19:34:29.304Z,42.48
2023-03-19T19:40:31.148Z,42.61
2023-03-19T19:46:34.103Z,42.44
2023-03-19T19:52:37.041Z,42.82
2023-03-19T19:58:40.187Z,43.21
2023-03-19T20:04:41.790Z,43.25
2023-03-19T20:10:43.831Z,43.13
2023-03-19T20:16:46.640Z,43.04
2023-03-19T20:22:49.386Z,43.52
2023-03-19T20:28:51.695Z,43.59
2023-03-19T20:34:54.513Z,44.49
2023-03-19T20:40:56.966Z,43.95
2023-03-19T20:46:58.530Z,44.05
2023-03-19T20:53:03.021Z,44.18
2023-03-19T21:00:22.416Z,44.98
2023-03-19T21:07:53.187Z,45.32
2023-03-19T21:13:55.052Z,45.43
2023-03-19T21:19:56.882Z,45.60
2023-03-19T21:25:59.956Z,45.80
2023-03-19T21:32:01.559Z,45.49
2023-03-19T21:38:03.101Z,45.12
2023-03-19T21:44:13.601Z,45.35
2023-03-19T21:50:17.600Z,46.11
2023-03-19T21:56:34.767Z,46.47
2023-03-19T22:02:43.464Z,46.73
2023-03-19T22:08:47.473Z,47.29
2023-03-19T22:14:51.485Z,47.36
2023-03-19T22:20:53.941Z,47.17
2023-03-19T22:27:01.135Z,47.27
2023-03-19T22:33:14.053Z,47.58
2023-03-19T22:39:18.060Z,47.70
2023-03-19T22:45:29.806Z,48.18
2023-03-19T22:51:31.555Z,48.55
2023-03-19T22:57:33.120Z,48.88
2023-03-19T23:03:35.054Z,49.14
2023-03-19T23:09:37.162Z,49.10
2023-03-19T23:15:39.193Z,49.48
2023-03-19T23:21:41.150Z,49.26
2023-03-19T23:27:43.368Z,49.53
2023-03-19T23:33:48.025Z,49.51
2023-03-19T23:39:49.462Z,49.61
2023-03-19T23:45:51.779Z,49.94
2023-03-19T23:51:53.381Z,49.93
2023-03-19T23:57:55.994Z,49.69
